sensor_id;sensor_type;location;lat;lon;timestamp;P1;durP1;ratioP1;P2;durP2;ratioP2
59520;SDS011;54898;40.918;14.476;2022-08-07T00:00:43;8.18;;;5.25;;
59520;SDS011;54898;40.918;14.476;2022-08-07T00:03:09;6.40;;;4.60;;
59520;SDS011;54898;40.918;14.476;2022-08-07T00:05:36;11.23;;;4.50;;
59520;SDS011;54898;40.918;14.476;2022-08-07T00:08:03;7.05;;;4.70;;
59520;SDS011;54898;40.918;14.476;2022-08-07T00:10:30;8.75;;;4.35;;
59520;SDS011;54898;40.918;14.476;2022-08-07T00:12:58;9.25;;;4.53;;
59520;SDS011;54898;40.918;14.476;2022-08-07T00:15:29;8.15;;;5.00;;
59520;SDS011;54898;40.918;14.476;2022-08-07T00:17:57;6.90;;;4.13;;
59520;SDS011;54898;40.918;14.476;2022-08-07T00:20:24;5.50;;;4.63;;
59520;SDS011;54898;40.918;14.476;2022-08-07T00:22:51;10.40;;;4.78;;
59520;SDS011;54898;40.918;14.476;2022-08-07T00:25:18;7.50;;;4.82;;
59520;SDS011;54898;40.918;14.476;2022-08-07T00:27:45;6.38;;;4.88;;
59520;SDS011;54898;40.918;14.476;2022-08-07T00:30:12;10.23;;;4.53;;
59520;SDS011;54898;40.918;14.476;2022-08-07T00:32:40;9.07;;;4.68;;
59520;SDS011;54898;40.918;14.476;2022-08-07T00:35:07;8.98;;;4.80;;
59520;SDS011;54898;40.918;14.476;2022-08-07T00:37:34;11.18;;;4.80;;
59520;SDS011;54898;40.918;14.476;2022-08-07T00:40:01;5.82;;;4.75;;
59520;SDS011;54898;40.918;14.476;2022-08-07T00:42:28;7.55;;;4.50;;
59520;SDS011;54898;40.918;14.476;2022-08-07T00:44:54;9.45;;;4.57;;
59520;SDS011;54898;40.918;14.476;2022-08-07T00:47:21;8.35;;;4.13;;
59520;SDS011;54898;40.918;14.476;2022-08-07T00:49:49;4.75;;;4.28;;
59520;SDS011;54898;40.918;14.476;2022-08-07T00:52:16;10.43;;;4.55;;
59520;SDS011;54898;40.918;14.476;2022-08-07T00:54:42;6.88;;;4.13;;
59520;SDS011;54898;40.918;14.476;2022-08-07T00:57:09;10.55;;;4.57;;
59520;SDS011;54898;40.918;14.476;2022-08-07T00:59:37;7.28;;;3.97;;
59520;SDS011;54898;40.918;14.476;2022-08-07T01:02:05;5.95;;;4.13;;
59520;SDS011;54898;40.918;14.476;2022-08-07T01:04:32;7.93;;;4.53;;
59520;SDS011;54898;40.918;14.476;2022-08-07T01:07:00;6.57;;;4.32;;
59520;SDS011;54898;40.918;14.476;2022-08-07T01:09:27;7.57;;;4.78;;
59520;SDS011;54898;40.918;14.476;2022-08-07T01:11:54;9.20;;;4.00;;
59520;SDS011;54898;40.918;14.476;2022-08-07T01:14:22;10.43;;;4.68;;
59520;SDS011;54898;40.918;14.476;2022-08-07T01:16:50;8.95;;;4.10;;
59520;SDS011;54898;40.918;14.476;2022-08-07T01:19:19;9.13;;;4.60;;
59520;SDS011;54898;40.918;14.476;2022-08-07T01:21:52;8.73;;;4.30;;
59520;SDS011;54898;40.918;14.476;2022-08-07T01:24:22;7.32;;;4.47;;
59520;SDS011;54898;40.918;14.476;2022-08-07T01:26:50;7.15;;;4.35;;
59520;SDS011;54898;40.918;14.476;2022-08-07T01:29:17;7.53;;;4.65;;
59520;SDS011;54898;40.918;14.476;2022-08-07T01:31:44;6.72;;;4.50;;
59520;SDS011;54898;40.918;14.476;2022-08-07T01:34:13;8.20;;;4.70;;
59520;SDS011;54898;40.918;14.476;2022-08-07T01:36:41;7.90;;;4.30;;
59520;SDS011;54898;40.918;14.476;2022-08-07T01:39:14;11.07;;;5.47;;
59520;SDS011;54898;40.918;14.476;2022-08-07T01:41:48;8.60;;;4.93;;
59520;SDS011;54898;40.918;14.476;2022-08-07T01:44:16;10.77;;;4.97;;
59520;SDS011;54898;40.918;14.476;2022-08-07T01:46:43;7.35;;;4.70;;
59520;SDS011;54898;40.918;14.476;2022-08-07T01:49:10;8.15;;;4.70;;
59520;SDS011;54898;40.918;14.476;2022-08-07T01:51:38;10.30;;;5.03;;
59520;SDS011;54898;40.918;14.476;2022-08-07T01:54:07;6.83;;;4.77;;
59520;SDS011;54898;40.918;14.476;2022-08-07T01:56:40;9.35;;;5.53;;
59520;SDS011;54898;40.918;14.476;2022-08-07T01:59:13;8.95;;;5.22;;
59520;SDS011;54898;40.918;14.476;2022-08-07T02:01:44;12.25;;;5.57;;
59520;SDS011;54898;40.918;14.476;2022-08-07T02:04:16;9.35;;;5.30;;
59520;SDS011;54898;40.918;14.476;2022-08-07T02:06:52;11.77;;;5.65;;
59520;SDS011;54898;40.918;14.476;2022-08-07T02:09:22;8.68;;;5.38;;
59520;SDS011;54898;40.918;14.476;2022-08-07T02:11:53;12.32;;;5.38;;
59520;SDS011;54898;40.918;14.476;2022-08-07T02:14:23;9.38;;;5.30;;
59520;SDS011;54898;40.918;14.476;2022-08-07T02:16:53;11.20;;;5.15;;
59520;SDS011;54898;40.918;14.476;2022-08-07T02:19:22;12.60;;;5.22;;
59520;SDS011;54898;40.918;14.476;2022-08-07T02:21:50;9.60;;;5.22;;
59520;SDS011;54898;40.918;14.476;2022-08-07T02:24:18;8.67;;;5.30;;
59520;SDS011;54898;40.918;14.476;2022-08-07T02:26:45;10.50;;;5.18;;
59520;SDS011;54898;40.918;14.476;2022-08-07T02:29:15;7.57;;;5.18;;
59520;SDS011;54898;40.918;14.476;2022-08-07T02:31:42;9.90;;;5.50;;
59520;SDS011;54898;40.918;14.476;2022-08-07T02:34:10;7.78;;;5.10;;
59520;SDS011;54898;40.918;14.476;2022-08-07T02:36:45;10.10;;;5.00;;
59520;SDS011;54898;40.918;14.476;2022-08-07T02:39:17;12.10;;;5.38;;
59520;SDS011;54898;40.918;14.476;2022-08-07T02:41:46;7.00;;;5.30;;
59520;SDS011;54898;40.918;14.476;2022-08-07T02:44:16;10.25;;;5.28;;
59520;SDS011;54898;40.918;14.476;2022-08-07T02:46:45;8.30;;;5.50;;
59520;SDS011;54898;40.918;14.476;2022-08-07T02:49:16;12.23;;;5.25;;
59520;SDS011;54898;40.918;14.476;2022-08-07T02:51:44;11.50;;;5.20;;
59520;SDS011;54898;40.918;14.476;2022-08-07T02:54:14;7.10;;;4.63;;
59520;SDS011;54898;40.918;14.476;2022-08-07T02:56:43;9.52;;;5.40;;
59520;SDS011;54898;40.918;14.476;2022-08-07T02:59:14;9.05;;;5.22;;
59520;SDS011;54898;40.918;14.476;2022-08-07T03:01:45;8.40;;;5.03;;
59520;SDS011;54898;40.918;14.476;2022-08-07T03:04:13;10.27;;;5.25;;
59520;SDS011;54898;40.918;14.476;2022-08-07T03:06:43;6.50;;;5.00;;
59520;SDS011;54898;40.918;14.476;2022-08-07T03:09:12;9.07;;;5.22;;
59520;SDS011;54898;40.918;14.476;2022-08-07T03:11:39;7.22;;;4.82;;
59520;SDS011;54898;40.918;14.476;2022-08-07T03:14:08;9.65;;;4.60;;
59520;SDS011;54898;40.918;14.476;2022-08-07T03:16:38;10.18;;;5.20;;
59520;SDS011;54898;40.918;14.476;2022-08-07T03:19:06;9.82;;;5.35;;
59520;SDS011;54898;40.918;14.476;2022-08-07T03:21:33;7.63;;;5.18;;
59520;SDS011;54898;40.918;14.476;2022-08-07T03:24:01;6.45;;;4.95;;
59520;SDS011;54898;40.918;14.476;2022-08-07T03:29:00;13.15;;;4.97;;
59520;SDS011;54898;40.918;14.476;2022-08-07T03:31:30;12.77;;;5.07;;
59520;SDS011;54898;40.918;14.476;2022-08-07T03:33:59;6.60;;;4.75;;
59520;SDS011;54898;40.918;14.476;2022-08-07T03:36:31;9.23;;;4.90;;
59520;SDS011;54898;40.918;14.476;2022-08-07T03:39:01;7.43;;;4.80;;
59520;SDS011;54898;40.918;14.476;2022-08-07T03:41:31;7.57;;;4.80;;
59520;SDS011;54898;40.918;14.476;2022-08-07T03:43:59;11.95;;;4.50;;
59520;SDS011;54898;40.918;14.476;2022-08-07T03:46:30;12.25;;;4.50;;
59520;SDS011;54898;40.918;14.476;2022-08-07T03:49:00;7.68;;;4.57;;
59520;SDS011;54898;40.918;14.476;2022-08-07T03:51:29;7.72;;;4.95;;
59520;SDS011;54898;40.918;14.476;2022-08-07T03:54:00;11.85;;;5.55;;
59520;SDS011;54898;40.918;14.476;2022-08-07T03:56:27;7.13;;;5.00;;
59520;SDS011;54898;40.918;14.476;2022-08-07T03:58:56;14.03;;;5.20;;
59520;SDS011;54898;40.918;14.476;2022-08-07T04:01:24;8.90;;;5.30;;
59520;SDS011;54898;40.918;14.476;2022-08-07T04:03:54;22.80;;;6.30;;
59520;SDS011;54898;40.918;14.476;2022-08-07T04:06:24;9.57;;;5.47;;
59520;SDS011;54898;40.918;14.476;2022-08-07T04:08:51;8.47;;;4.90;;
59520;SDS011;54898;40.918;14.476;2022-08-07T04:11:20;24.23;;;6.00;;
59520;SDS011;54898;40.918;14.476;2022-08-07T04:13:47;9.23;;;5.00;;
59520;SDS011;54898;40.918;14.476;2022-08-07T04:16:16;11.47;;;5.43;;
59520;SDS011;54898;40.918;14.476;2022-08-07T04:18:43;18.85;;;5.80;;
59520;SDS011;54898;40.918;14.476;2022-08-07T04:21:12;16.98;;;6.00;;
59520;SDS011;54898;40.918;14.476;2022-08-07T04:23:40;11.05;;;5.20;;
59520;SDS011;54898;40.918;14.476;2022-08-07T04:26:08;15.98;;;7.22;;
59520;SDS011;54898;40.918;14.476;2022-08-07T04:28:35;10.30;;;7.55;;
59520;SDS011;54898;40.918;14.476;2022-08-07T04:31:01;7.18;;;6.53;;
59520;SDS011;54898;40.918;14.476;2022-08-07T04:33:32;10.80;;;7.18;;
59520;SDS011;54898;40.918;14.476;2022-08-07T04:36:01;15.05;;;7.05;;
59520;SDS011;54898;40.918;14.476;2022-08-07T04:38:29;9.50;;;5.93;;
59520;SDS011;54898;40.918;14.476;2022-08-07T04:40:59;8.93;;;5.55;;
59520;SDS011;54898;40.918;14.476;2022-08-07T04:43:42;15.95;;;7.18;;
59520;SDS011;54898;40.918;14.476;2022-08-07T04:46:14;11.50;;;5.63;;
59520;SDS011;54898;40.918;14.476;2022-08-07T04:48:46;8.57;;;5.68;;
59520;SDS011;54898;40.918;14.476;2022-08-07T04:51:20;25.10;;;6.20;;
59520;SDS011;54898;40.918;14.476;2022-08-07T04:53:57;16.23;;;5.95;;
59520;SDS011;54898;40.918;14.476;2022-08-07T04:56:29;12.80;;;5.47;;
59520;SDS011;54898;40.918;14.476;2022-08-07T04:59:05;9.85;;;5.30;;
59520;SDS011;54898;40.918;14.476;2022-08-07T05:01:37;6.88;;;5.35;;
59520;SDS011;54898;40.918;14.476;2022-08-07T05:04:08;9.00;;;5.25;;
59520;SDS011;54898;40.918;14.476;2022-08-07T05:06:44;13.88;;;5.40;;
59520;SDS011;54898;40.918;14.476;2022-08-07T05:09:25;12.77;;;5.18;;
59520;SDS011;54898;40.918;14.476;2022-08-07T05:11:59;11.02;;;5.10;;
59520;SDS011;54898;40.918;14.476;2022-08-07T05:14:33;12.38;;;5.40;;
59520;SDS011;54898;40.918;14.476;2022-08-07T05:17:06;12.57;;;6.03;;
59520;SDS011;54898;40.918;14.476;2022-08-07T05:19:36;10.88;;;5.20;;
59520;SDS011;54898;40.918;14.476;2022-08-07T05:22:07;8.50;;;5.72;;
59520;SDS011;54898;40.918;14.476;2022-08-07T05:24:38;7.43;;;4.85;;
59520;SDS011;54898;40.918;14.476;2022-08-07T05:27:08;9.15;;;4.63;;
59520;SDS011;54898;40.918;14.476;2022-08-07T05:29:37;6.75;;;4.60;;
59520;SDS011;54898;40.918;14.476;2022-08-07T05:32:06;11.90;;;5.22;;
59520;SDS011;54898;40.918;14.476;2022-08-07T05:34:34;10.23;;;4.78;;
59520;SDS011;54898;40.918;14.476;2022-08-07T05:37:01;9.13;;;4.95;;
59520;SDS011;54898;40.918;14.476;2022-08-07T05:39:34;10.18;;;5.05;;
59520;SDS011;54898;40.918;14.476;2022-08-07T05:42:04;15.70;;;4.53;;
59520;SDS011;54898;40.918;14.476;2022-08-07T05:44:34;9.63;;;4.95;;
59520;SDS011;54898;40.918;14.476;2022-08-07T05:47:03;10.00;;;4.50;;
59520;SDS011;54898;40.918;14.476;2022-08-07T05:49:31;8.90;;;4.65;;
59520;SDS011;54898;40.918;14.476;2022-08-07T05:51:59;8.27;;;4.75;;
59520;SDS011;54898;40.918;14.476;2022-08-07T05:54:29;13.35;;;5.18;;
59520;SDS011;54898;40.918;14.476;2022-08-07T05:56:55;12.48;;;4.70;;
59520;SDS011;54898;40.918;14.476;2022-08-07T05:59:24;13.40;;;4.83;;
59520;SDS011;54898;40.918;14.476;2022-08-07T06:01:59;6.70;;;4.47;;
59520;SDS011;54898;40.918;14.476;2022-08-07T06:04:28;11.73;;;4.60;;
59520;SDS011;54898;40.918;14.476;2022-08-07T06:06:57;18.87;;;5.10;;
59520;SDS011;54898;40.918;14.476;2022-08-07T06:09:29;13.93;;;4.63;;
59520;SDS011;54898;40.918;14.476;2022-08-07T06:11:56;11.57;;;4.65;;
59520;SDS011;54898;40.918;14.476;2022-08-07T06:14:23;13.48;;;5.50;;
59520;SDS011;54898;40.918;14.476;2022-08-07T06:16:55;7.93;;;5.03;;
59520;SDS011;54898;40.918;14.476;2022-08-07T06:19:27;11.27;;;5.53;;
59520;SDS011;54898;40.918;14.476;2022-08-07T06:21:54;10.73;;;5.30;;
59520;SDS011;54898;40.918;14.476;2022-08-07T06:24:21;14.25;;;4.93;;
59520;SDS011;54898;40.918;14.476;2022-08-07T06:26:48;9.90;;;5.32;;
59520;SDS011;54898;40.918;14.476;2022-08-07T06:29:15;11.95;;;5.15;;
59520;SDS011;54898;40.918;14.476;2022-08-07T06:31:42;7.35;;;5.03;;
59520;SDS011;54898;40.918;14.476;2022-08-07T06:34:09;11.27;;;5.18;;
59520;SDS011;54898;40.918;14.476;2022-08-07T06:36:37;10.60;;;4.82;;
59520;SDS011;54898;40.918;14.476;2022-08-07T06:39:05;26.90;;;5.75;;
59520;SDS011;54898;40.918;14.476;2022-08-07T06:41:34;10.90;;;5.45;;
59520;SDS011;54898;40.918;14.476;2022-08-07T06:44:07;10.32;;;4.88;;
59520;SDS011;54898;40.918;14.476;2022-08-07T06:46:37;9.15;;;5.03;;
59520;SDS011;54898;40.918;14.476;2022-08-07T06:49:05;6.67;;;4.63;;
59520;SDS011;54898;40.918;14.476;2022-08-07T06:51:37;10.75;;;4.82;;
59520;SDS011;54898;40.918;14.476;2022-08-07T06:54:08;9.43;;;4.50;;
59520;SDS011;54898;40.918;14.476;2022-08-07T06:59:17;5.15;;;3.75;;
59520;SDS011;54898;40.918;14.476;2022-08-07T07:01:49;10.30;;;4.00;;
59520;SDS011;54898;40.918;14.476;2022-08-07T07:04:18;13.95;;;4.45;;
59520;SDS011;54898;40.918;14.476;2022-08-07T07:06:46;12.00;;;4.15;;
59520;SDS011;54898;40.918;14.476;2022-08-07T07:09:17;11.77;;;3.92;;
59520;SDS011;54898;40.918;14.476;2022-08-07T07:11:48;9.90;;;4.00;;
59520;SDS011;54898;40.918;14.476;2022-08-07T07:14:23;12.48;;;3.47;;
59520;SDS011;54898;40.918;14.476;2022-08-07T07:16:51;7.75;;;3.25;;
59520;SDS011;54898;40.918;14.476;2022-08-07T07:19:26;19.77;;;3.90;;
59520;SDS011;54898;40.918;14.476;2022-08-07T07:21:57;21.85;;;3.95;;
59520;SDS011;54898;40.918;14.476;2022-08-07T07:24:25;8.52;;;3.55;;
59520;SDS011;54898;40.918;14.476;2022-08-07T07:26:52;5.67;;;3.60;;
59520;SDS011;54898;40.918;14.476;2022-08-07T07:29:22;6.10;;;3.85;;
59520;SDS011;54898;40.918;14.476;2022-08-07T07:31:52;6.95;;;4.03;;
59520;SDS011;54898;40.918;14.476;2022-08-07T07:34:23;8.90;;;3.70;;
59520;SDS011;54898;40.918;14.476;2022-08-07T07:36:53;6.28;;;3.72;;
59520;SDS011;54898;40.918;14.476;2022-08-07T07:39:23;9.55;;;4.05;;
59520;SDS011;54898;40.918;14.476;2022-08-07T07:41:52;6.13;;;3.63;;
59520;SDS011;54898;40.918;14.476;2022-08-07T07:44:21;8.05;;;4.05;;
59520;SDS011;54898;40.918;14.476;2022-08-07T07:46:49;9.40;;;3.85;;
59520;SDS011;54898;40.918;14.476;2022-08-07T07:49:17;7.40;;;4.00;;
59520;SDS011;54898;40.918;14.476;2022-08-07T07:51:46;5.47;;;4.00;;
59520;SDS011;54898;40.918;14.476;2022-08-07T07:54:15;7.30;;;3.97;;
59520;SDS011;54898;40.918;14.476;2022-08-07T07:56:43;11.40;;;4.03;;
59520;SDS011;54898;40.918;14.476;2022-08-07T07:59:11;8.65;;;3.90;;
59520;SDS011;54898;40.918;14.476;2022-08-07T08:01:41;6.78;;;3.67;;
59520;SDS011;54898;40.918;14.476;2022-08-07T08:04:10;8.27;;;3.92;;
59520;SDS011;54898;40.918;14.476;2022-08-07T08:06:38;9.15;;;4.13;;
59520;SDS011;54898;40.918;14.476;2022-08-07T08:09:07;7.78;;;3.90;;
59520;SDS011;54898;40.918;14.476;2022-08-07T08:11:39;6.88;;;4.07;;
59520;SDS011;54898;40.918;14.476;2022-08-07T08:14:06;8.70;;;4.20;;
59520;SDS011;54898;40.918;14.476;2022-08-07T08:16:34;12.15;;;4.15;;
59520;SDS011;54898;40.918;14.476;2022-08-07T08:19:04;13.15;;;4.43;;
59520;SDS011;54898;40.918;14.476;2022-08-07T08:21:33;7.60;;;4.18;;
59520;SDS011;54898;40.918;14.476;2022-08-07T08:24:20;8.95;;;4.18;;
59520;SDS011;54898;40.918;14.476;2022-08-07T08:27:08;6.88;;;4.28;;
59520;SDS011;54898;40.918;14.476;2022-08-07T08:29:40;5.03;;;4.40;;
59520;SDS011;54898;40.918;14.476;2022-08-07T08:32:08;7.63;;;4.68;;
59520;SDS011;54898;40.918;14.476;2022-08-07T08:34:37;8.50;;;4.40;;
59520;SDS011;54898;40.918;14.476;2022-08-07T08:37:05;9.65;;;4.80;;
59520;SDS011;54898;40.918;14.476;2022-08-07T08:39:33;9.30;;;4.90;;
59520;SDS011;54898;40.918;14.476;2022-08-07T08:42:03;10.00;;;4.72;;
59520;SDS011;54898;40.918;14.476;2022-08-07T08:44:34;8.32;;;4.70;;
59520;SDS011;54898;40.918;14.476;2022-08-07T08:47:05;17.48;;;5.57;;
59520;SDS011;54898;40.918;14.476;2022-08-07T08:49:35;14.80;;;5.30;;
59520;SDS011;54898;40.918;14.476;2022-08-07T08:52:09;11.85;;;4.82;;
59520;SDS011;54898;40.918;14.476;2022-08-07T08:54:41;12.68;;;5.38;;
59520;SDS011;54898;40.918;14.476;2022-08-07T08:57:15;10.70;;;5.63;;
59520;SDS011;54898;40.918;14.476;2022-08-07T08:59:52;7.60;;;4.50;;
59520;SDS011;54898;40.918;14.476;2022-08-07T09:02:27;5.05;;;4.57;;
59520;SDS011;54898;40.918;14.476;2022-08-07T09:05:04;7.57;;;5.35;;
59520;SDS011;54898;40.918;14.476;2022-08-07T09:07:41;7.25;;;4.90;;
59520;SDS011;54898;40.918;14.476;2022-08-07T09:10:15;10.60;;;9.70;;
59520;SDS011;54898;40.918;14.476;2022-08-07T09:12:46;15.43;;;14.07;;
59520;SDS011;54898;40.918;14.476;2022-08-07T09:15:26;11.10;;;5.10;;
59520;SDS011;54898;40.918;14.476;2022-08-07T09:20:53;7.20;;;5.30;;
59520;SDS011;54898;40.918;14.476;2022-08-07T09:23:30;9.55;;;5.07;;
59520;SDS011;54898;40.918;14.476;2022-08-07T09:26:09;7.85;;;4.60;;
59520;SDS011;54898;40.918;14.476;2022-08-07T09:28:43;11.60;;;5.10;;
59520;SDS011;54898;40.918;14.476;2022-08-07T09:31:22;6.55;;;4.63;;
59520;SDS011;54898;40.918;14.476;2022-08-07T09:34:02;15.30;;;4.63;;
59520;SDS011;54898;40.918;14.476;2022-08-07T09:36:35;11.15;;;5.03;;
59520;SDS011;54898;40.918;14.476;2022-08-07T09:39:11;6.82;;;4.43;;
59520;SDS011;54898;40.918;14.476;2022-08-07T09:41:52;7.90;;;4.80;;
59520;SDS011;54898;40.918;14.476;2022-08-07T09:44:27;10.80;;;4.32;;
59520;SDS011;54898;40.918;14.476;2022-08-07T09:47:16;10.65;;;4.88;;
59520;SDS011;54898;40.918;14.476;2022-08-07T09:49:54;10.68;;;4.28;;
59520;SDS011;54898;40.918;14.476;2022-08-07T09:52:25;12.75;;;4.68;;
59520;SDS011;54898;40.918;14.476;2022-08-07T09:54:56;14.27;;;4.78;;
59520;SDS011;54898;40.918;14.476;2022-08-07T10:00:42;11.88;;;4.88;;
59520;SDS011;54898;40.918;14.476;2022-08-07T10:03:33;19.42;;;4.93;;
59520;SDS011;54898;40.918;14.476;2022-08-07T10:06:22;12.05;;;4.50;;
59520;SDS011;54898;40.918;14.476;2022-08-07T10:09:08;11.95;;;4.50;;
59520;SDS011;54898;40.918;14.476;2022-08-07T10:11:50;6.88;;;4.45;;
59520;SDS011;54898;40.918;14.476;2022-08-07T10:14:30;9.27;;;4.70;;
59520;SDS011;54898;40.918;14.476;2022-08-07T10:17:11;8.07;;;5.13;;
59520;SDS011;54898;40.918;14.476;2022-08-07T10:19:59;9.43;;;4.35;;
59520;SDS011;54898;40.918;14.476;2022-08-07T10:22:46;10.93;;;4.53;;
59520;SDS011;54898;40.918;14.476;2022-08-07T10:25:28;8.30;;;3.97;;
59520;SDS011;54898;40.918;14.476;2022-08-07T10:28:14;8.98;;;4.90;;
59520;SDS011;54898;40.918;14.476;2022-08-07T10:30:57;13.43;;;4.53;;
59520;SDS011;54898;40.918;14.476;2022-08-07T10:33:47;7.90;;;4.60;;
59520;SDS011;54898;40.918;14.476;2022-08-07T10:36:27;13.45;;;4.70;;
59520;SDS011;54898;40.918;14.476;2022-08-07T10:39:04;11.85;;;4.32;;
59520;SDS011;54898;40.918;14.476;2022-08-07T10:41:43;11.82;;;4.47;;
59520;SDS011;54898;40.918;14.476;2022-08-07T10:44:18;9.65;;;4.40;;
59520;SDS011;54898;40.918;14.476;2022-08-07T10:46:50;13.93;;;4.70;;
59520;SDS011;54898;40.918;14.476;2022-08-07T10:49:22;12.55;;;4.38;;
59520;SDS011;54898;40.918;14.476;2022-08-07T10:52:04;7.15;;;4.13;;
59520;SDS011;54898;40.918;14.476;2022-08-07T10:54:36;9.27;;;4.50;;
59520;SDS011;54898;40.918;14.476;2022-08-07T10:57:10;8.60;;;4.60;;
59520;SDS011;54898;40.918;14.476;2022-08-07T10:59:46;10.15;;;4.78;;
59520;SDS011;54898;40.918;14.476;2022-08-07T11:02:27;5.82;;;4.40;;
59520;SDS011;54898;40.918;14.476;2022-08-07T11:05:19;6.45;;;4.57;;
59520;SDS011;54898;40.918;14.476;2022-08-07T11:08:01;8.13;;;4.50;;
59520;SDS011;54898;40.918;14.476;2022-08-07T11:10:37;5.95;;;5.00;;
59520;SDS011;54898;40.918;14.476;2022-08-07T11:13:09;8.05;;;6.13;;
59520;SDS011;54898;40.918;14.476;2022-08-07T11:15:40;7.80;;;5.47;;
59520;SDS011;54898;40.918;14.476;2022-08-07T11:18:13;6.43;;;3.95;;
59520;SDS011;54898;40.918;14.476;2022-08-07T11:20:45;4.15;;;3.65;;
59520;SDS011;54898;40.918;14.476;2022-08-07T11:23:19;6.28;;;3.47;;
59520;SDS011;54898;40.918;14.476;2022-08-07T11:25:50;5.60;;;3.70;;
59520;SDS011;54898;40.918;14.476;2022-08-07T11:28:22;4.70;;;3.88;;
59520;SDS011;54898;40.918;14.476;2022-08-07T11:30:54;6.45;;;3.55;;
59520;SDS011;54898;40.918;14.476;2022-08-07T11:33:27;8.13;;;3.90;;
59520;SDS011;54898;40.918;14.476;2022-08-07T11:36:05;6.65;;;3.67;;
59520;SDS011;54898;40.918;14.476;2022-08-07T11:38:45;6.28;;;3.60;;
59520;SDS011;54898;40.918;14.476;2022-08-07T11:41:21;7.60;;;3.60;;
59520;SDS011;54898;40.918;14.476;2022-08-07T11:43:56;4.13;;;3.72;;
59520;SDS011;54898;40.918;14.476;2022-08-07T11:46:34;4.70;;;3.60;;
59520;SDS011;54898;40.918;14.476;2022-08-07T11:49:16;11.27;;;3.75;;
59520;SDS011;54898;40.918;14.476;2022-08-07T11:51:55;6.82;;;3.83;;
59520;SDS011;54898;40.918;14.476;2022-08-07T11:54:41;8.70;;;3.40;;
59520;SDS011;54898;40.918;14.476;2022-08-07T11:57:21;8.82;;;3.85;;
59520;SDS011;54898;40.918;14.476;2022-08-07T12:00:02;5.20;;;3.60;;
59520;SDS011;54898;40.918;14.476;2022-08-07T12:02:46;5.30;;;3.90;;
59520;SDS011;54898;40.918;14.476;2022-08-07T12:05:25;5.20;;;3.67;;
59520;SDS011;54898;40.918;14.476;2022-08-07T12:07:56;5.60;;;3.70;;
59520;SDS011;54898;40.918;14.476;2022-08-07T12:10:29;7.00;;;3.88;;
59520;SDS011;54898;40.918;14.476;2022-08-07T12:13:02;10.50;;;4.55;;
59520;SDS011;54898;40.918;14.476;2022-08-07T12:15:32;5.78;;;3.90;;
59520;SDS011;54898;40.918;14.476;2022-08-07T12:18:04;11.43;;;4.05;;
59520;SDS011;54898;40.918;14.476;2022-08-07T12:20:41;4.63;;;4.22;;
59520;SDS011;54898;40.918;14.476;2022-08-07T12:23:18;5.53;;;3.53;;
59520;SDS011;54898;40.918;14.476;2022-08-07T12:25:55;8.50;;;3.72;;
59520;SDS011;54898;40.918;14.476;2022-08-07T12:28:27;4.82;;;3.95;;
59520;SDS011;54898;40.918;14.476;2022-08-07T12:31:02;7.28;;;4.20;;
59520;SDS011;54898;40.918;14.476;2022-08-07T12:33:34;3.72;;;3.40;;
59520;SDS011;54898;40.918;14.476;2022-08-07T12:36:01;7.87;;;4.07;;
59520;SDS011;54898;40.918;14.476;2022-08-07T12:38:30;7.10;;;3.80;;
59520;SDS011;54898;40.918;14.476;2022-08-07T12:40:59;14.07;;;3.97;;
59520;SDS011;54898;40.918;14.476;2022-08-07T12:43:29;8.05;;;3.92;;
59520;SDS011;54898;40.918;14.476;2022-08-07T12:46:01;4.45;;;4.05;;
59520;SDS011;54898;40.918;14.476;2022-08-07T12:48:36;5.15;;;3.95;;
59520;SDS011;54898;40.918;14.476;2022-08-07T12:51:10;7.05;;;4.38;;
59520;SDS011;54898;40.918;14.476;2022-08-07T12:53:41;9.43;;;3.88;;
59520;SDS011;54898;40.918;14.476;2022-08-07T12:56:17;57.35;;;7.07;;
59520;SDS011;54898;40.918;14.476;2022-08-07T12:58:48;89.85;;;8.40;;
59520;SDS011;54898;40.918;14.476;2022-08-07T13:01:19;162.70;;;11.38;;
59520;SDS011;54898;40.918;14.476;2022-08-07T13:04:07;119.40;;;8.77;;
59520;SDS011;54898;40.918;14.476;2022-08-07T13:06:45;85.03;;;8.35;;
59520;SDS011;54898;40.918;14.476;2022-08-07T13:09:38;79.82;;;8.07;;
59520;SDS011;54898;40.918;14.476;2022-08-07T13:12:18;55.03;;;6.30;;
59520;SDS011;54898;40.918;14.476;2022-08-07T13:14:55;32.50;;;6.97;;
59520;SDS011;54898;40.918;14.476;2022-08-07T13:17:29;36.08;;;5.63;;
59520;SDS011;54898;40.918;14.476;2022-08-07T13:20:05;30.02;;;4.95;;
59520;SDS011;54898;40.918;14.476;2022-08-07T13:22:36;16.98;;;4.45;;
59520;SDS011;54898;40.918;14.476;2022-08-07T13:25:10;32.70;;;5.03;;
59520;SDS011;54898;40.918;14.476;2022-08-07T13:27:41;21.17;;;4.80;;
59520;SDS011;54898;40.918;14.476;2022-08-07T13:30:12;31.63;;;5.13;;
59520;SDS011;54898;40.918;14.476;2022-08-07T13:32:41;47.58;;;6.70;;
59520;SDS011;54898;40.918;14.476;2022-08-07T13:35:14;37.63;;;5.82;;
59520;SDS011;54898;40.918;14.476;2022-08-07T13:37:52;19.70;;;4.70;;
59520;SDS011;54898;40.918;14.476;2022-08-07T13:40:24;9.63;;;4.72;;
59520;SDS011;54898;40.918;14.476;2022-08-07T13:42:57;11.30;;;3.80;;
59520;SDS011;54898;40.918;14.476;2022-08-07T13:45:27;15.88;;;4.50;;
59520;SDS011;54898;40.918;14.476;2022-08-07T13:47:55;13.35;;;4.65;;
59520;SDS011;54898;40.918;14.476;2022-08-07T13:52:51;13.32;;;4.35;;
59520;SDS011;54898;40.918;14.476;2022-08-07T13:55:21;10.27;;;4.13;;
59520;SDS011;54898;40.918;14.476;2022-08-07T14:00:18;25.08;;;5.07;;
59520;SDS011;54898;40.918;14.476;2022-08-07T14:02:46;24.25;;;5.70;;
59520;SDS011;54898;40.918;14.476;2022-08-07T14:05:19;23.38;;;5.35;;
59520;SDS011;54898;40.918;14.476;2022-08-07T14:07:48;27.20;;;5.07;;
59520;SDS011;54898;40.918;14.476;2022-08-07T14:10:17;15.88;;;5.18;;
59520;SDS011;54898;40.918;14.476;2022-08-07T14:12:45;20.15;;;5.40;;
59520;SDS011;54898;40.918;14.476;2022-08-07T14:15:18;19.23;;;5.25;;
59520;SDS011;54898;40.918;14.476;2022-08-07T14:17:53;14.98;;;5.20;;
59520;SDS011;54898;40.918;14.476;2022-08-07T14:20:24;34.50;;;6.57;;
59520;SDS011;54898;40.918;14.476;2022-08-07T14:22:59;33.00;;;6.80;;
59520;SDS011;54898;40.918;14.476;2022-08-07T14:25:29;108.90;;;9.63;;
59520;SDS011;54898;40.918;14.476;2022-08-07T14:28:02;47.92;;;7.32;;
59520;SDS011;54898;40.918;14.476;2022-08-07T14:30:34;85.35;;;10.38;;
59520;SDS011;54898;40.918;14.476;2022-08-07T14:33:02;60.95;;;8.90;;
59520;SDS011;54898;40.918;14.476;2022-08-07T14:35:30;25.48;;;8.50;;
59520;SDS011;54898;40.918;14.476;2022-08-07T14:37:58;22.90;;;7.20;;
59520;SDS011;54898;40.918;14.476;2022-08-07T14:40:27;23.88;;;8.90;;
59520;SDS011;54898;40.918;14.476;2022-08-07T14:42:55;18.40;;;7.72;;
59520;SDS011;54898;40.918;14.476;2022-08-07T14:45:25;16.10;;;7.60;;
59520;SDS011;54898;40.918;14.476;2022-08-07T14:47:56;16.52;;;7.90;;
59520;SDS011;54898;40.918;14.476;2022-08-07T14:50:27;16.77;;;7.32;;
59520;SDS011;54898;40.918;14.476;2022-08-07T14:52:54;13.32;;;7.50;;
59520;SDS011;54898;40.918;14.476;2022-08-07T14:55:25;13.88;;;7.40;;
59520;SDS011;54898;40.918;14.476;2022-08-07T14:57:55;23.17;;;7.80;;
59520;SDS011;54898;40.918;14.476;2022-08-07T15:00:25;14.90;;;7.38;;
59520;SDS011;54898;40.918;14.476;2022-08-07T15:02:53;18.98;;;7.30;;
59520;SDS011;54898;40.918;14.476;2022-08-07T15:05:24;14.20;;;7.70;;
59520;SDS011;54898;40.918;14.476;2022-08-07T15:07:52;13.93;;;7.63;;
59520;SDS011;54898;40.918;14.476;2022-08-07T15:10:22;13.68;;;6.72;;